createdAt,value
2022-09-12T00:01:35.878Z,18.90
2022-09-12T00:04:03.563Z,18.90
2022-09-12T00:06:33.581Z,19.27
2022-09-12T00:09:04.458Z,18.70
2022-09-12T00:11:31.262Z,18.40
2022-09-12T00:13:59.989Z,19.00
2022-09-12T00:16:28.740Z,17.87
2022-09-12T00:18:55.431Z,17.90
2022-09-12T00:21:23.520Z,16.63
2022-09-12T00:23:51.551Z,17.97
2022-09-12T00:26:19.721Z,16.80
2022-09-12T00:28:46.916Z,18.67
2022-09-12T00:31:21.075Z,17.43
2022-09-12T00:33:47.908Z,18.50
2022-09-12T00:36:20.232Z,17.20
2022-09-12T00:38:49.167Z,17.13
2022-09-12T00:41:26.708Z,17.13
2022-09-12T00:44:00.450Z,17.70
2022-09-12T00:46:41.938Z,17.83
2022-09-12T00:49:23.112Z,17.37
2022-09-12T00:52:02.074Z,17.10
2022-09-12T00:54:33.934Z,17.00
2022-09-12T00:57:06.513Z,16.80
2022-09-12T00:59:48.510Z,16.43
2022-09-12T01:02:15.510Z,16.10
2022-09-12T01:04:44.441Z,16.00
2022-09-12T01:07:13.272Z,15.87
2022-09-12T01:09:41.723Z,16.80
2022-09-12T01:12:08.821Z,16.73
2022-09-12T01:14:36.996Z,16.27
2022-09-12T01:17:03.938Z,17.30
2022-09-12T01:19:48.834Z,16.97
2022-09-12T01:22:53.101Z,15.80
2022-09-12T01:25:50.235Z,16.50
2022-09-12T01:28:29.176Z,16.80
2022-09-12T01:31:04.830Z,15.90
2022-09-12T01:33:45.007Z,16.97
2022-09-12T01:36:28.317Z,16.27
2022-09-12T01:39:02.100Z,15.83
2022-09-12T01:41:42.886Z,16.30
2022-09-12T01:44:25.434Z,16.53
2022-09-12T01:46:59.758Z,15.90
2022-09-12T01:49:52.440Z,16.10
2022-09-12T01:52:50.082Z,16.27
2022-09-12T01:55:23.538Z,16.70
2022-09-12T01:58:07.904Z,15.67
2022-09-12T02:00:52.052Z,16.00
2022-09-12T02:03:29.516Z,15.80
2022-09-12T02:06:08.648Z,16.10
2022-09-12T02:08:43.332Z,16.90
2022-09-12T02:11:11.833Z,15.57
2022-09-12T02:13:43.140Z,15.47
2022-09-12T02:16:34.199Z,15.53
2022-09-12T02:19:16.065Z,14.80
2022-09-12T02:21:49.108Z,15.80
2022-09-12T02:24:18.250Z,15.93
2022-09-12T02:26:54.584Z,16.10
2022-09-12T02:29:21.391Z,15.33
2022-09-12T02:31:52.811Z,15.70
2022-09-12T02:35:12.259Z,15.23
2022-09-12T02:37:56.011Z,16.37
2022-09-12T02:40:23.323Z,15.37
2022-09-12T02:42:50.551Z,15.43
2022-09-12T02:45:17.952Z,16.00
2022-09-12T02:48:04.253Z,15.37
2022-09-12T02:50:32.132Z,16.43
2022-09-12T02:53:04.338Z,16.03
2022-09-12T02:55:34.006Z,15.77
2022-09-12T02:58:06.831Z,15.40
2022-09-12T03:00:48.027Z,15.77
2022-09-12T03:03:33.286Z,14.80
2022-09-12T03:06:03.142Z,15.00
2022-09-12T03:08:40.231Z,15.00
2022-09-12T03:11:16.427Z,14.53
2022-09-12T03:14:00.117Z,14.33
2022-09-12T03:16:46.663Z,14.37
2022-09-12T03:19:14.476Z,14.53
2022-09-12T03:21:56.394Z,14.37
2022-09-12T03:24:38.151Z,14.17
2022-09-12T03:27:17.439Z,14.73
2022-09-12T03:29:50.803Z,13.90
2022-09-12T03:32:18.166Z,14.17
2022-09-12T03:34:45.233Z,14.33
2022-09-12T03:37:11.877Z,14.77
2022-09-12T03:39:38.491Z,14.63
2022-09-12T03:42:05.263Z,13.73
2022-09-12T03:44:31.842Z,13.30
2022-09-12T03:46:58.771Z,12.80
2022-09-12T03:49:25.343Z,13.77
2022-09-12T03:51:55.259Z,14.40
2022-09-12T03:54:21.981Z,14.47
2022-09-12T03:56:48.579Z,12.87
2022-09-12T03:59:16.116Z,13.20
2022-09-12T04:01:42.776Z,13.13
2022-09-12T04:04:09.895Z,12.97
2022-09-12T04:06:36.458Z,12.73
2022-09-12T04:09:03.759Z,13.70
2022-09-12T04:11:32.167Z,12.97
2022-09-12T04:13:58.762Z,11.70
2022-09-12T04:16:25.397Z,11.17
2022-09-12T04:18:51.984Z,11.77
2022-09-12T04:21:23.314Z,11.67
2022-09-12T04:23:50.355Z,10.87
2022-09-12T04:26:18.437Z,12.03
2022-09-12T04:28:46.944Z,12.43
2022-09-12T04:31:17.985Z,12.00
2022-09-12T04:33:45.539Z,10.93
2022-09-12T04:36:16.947Z,11.17
2022-09-12T04:38:45.411Z,11.60
2022-09-12T04:41:19.403Z,11.40
2022-09-12T04:43:46.875Z,11.37
2022-09-12T04:46:15.407Z,11.43
2022-09-12T04:48:44.023Z,11.13
2022-09-12T04:51:15.856Z,11.33
2022-09-12T04:53:50.295Z,11.43
2022-09-12T04:56:16.945Z,11.40
2022-09-12T04:58:43.939Z,10.87
2022-09-12T05:01:14.677Z,11.93
2022-09-12T05:03:43.495Z,11.40
2022-09-12T05:06:16.604Z,11.60
2022-09-12T05:08:43.938Z,11.50
2022-09-12T05:11:26.657Z,12.13
2022-09-12T05:13:58.586Z,11.10
2022-09-12T05:16:28.546Z,11.70
2022-09-12T05:18:59.212Z,10.53
2022-09-12T05:21:27.055Z,10.33
2022-09-12T05:23:55.705Z,10.97
2022-09-12T05:26:23.854Z,10.47
2022-09-12T05:28:52.203Z,10.57
2022-09-12T05:31:23.115Z,10.80
2022-09-12T05:33:52.647Z,9.87
2022-09-12T05:36:28.686Z,10.17
2022-09-12T05:38:57.094Z,9.50
2022-09-12T05:41:26.078Z,9.87
2022-09-12T05:43:57.792Z,9.67
2022-09-12T05:46:27.145Z,9.50
2022-09-12T05:48:56.308Z,10.07
2022-09-12T05:51:26.712Z,10.30
2022-09-12T05:53:57.027Z,9.17
2022-09-12T05:56:26.155Z,9.73
2022-09-12T05:58:59.728Z,9.87
2022-09-12T06:01:28.120Z,9.97
2022-09-12T06:03:58.404Z,10.20
2022-09-12T06:06:27.764Z,9.40
2022-09-12T06:09:00.764Z,10.10
2022-09-12T06:11:30.486Z,8.80
2022-09-12T06:13:58.519Z,8.73
2022-09-12T06:16:30.646Z,9.00
2022-09-12T06:19:03.093Z,8.60
2022-09-12T06:21:31.306Z,9.00
2022-09-12T06:24:01.578Z,9.20
2022-09-12T06:26:29.291Z,9.47
2022-09-12T06:28:58.437Z,8.20
2022-09-12T06:31:29.146Z,9.70
2022-09-12T06:33:59.360Z,8.77
2022-09-12T06:36:28.676Z,8.60
2022-09-12T06:39:01.137Z,8.70
2022-09-12T06:41:29.117Z,8.33
2022-09-12T06:43:56.071Z,8.30
2022-09-12T06:46:23.323Z,8.37
2022-09-12T06:48:50.617Z,8.43
2022-09-12T06:51:20.065Z,8.50
2022-09-12T06:53:48.404Z,8.23
2022-09-12T06:56:20.717Z,8.77
2022-09-12T06:58:49.953Z,7.57
2022-09-12T07:01:22.207Z,9.23
2022-09-12T07:03:51.684Z,7.73
2022-09-12T07:06:21.130Z,7.73
2022-09-12T07:08:48.485Z,8.20
2022-09-12T07:11:20.164Z,8.00
2022-09-12T07:13:49.534Z,8.27
2022-09-12T07:16:19.899Z,9.07
2022-09-12T07:19:02.654Z,8.40
2022-09-12T07:21:30.299Z,8.60
2022-09-12T07:24:00.599Z,9.00
2022-09-12T07:26:30.378Z,8.70
2022-09-12T07:29:18.638Z,8.80
2022-09-12T07:31:45.712Z,8.70
2022-09-12T07:34:12.878Z,9.17
2022-09-12T07:36:39.629Z,9.13
2022-09-12T07:39:07.347Z,9.00
2022-09-12T07:41:34.247Z,9.43
2022-09-12T07:44:03.200Z,9.70
2022-09-12T07:46:31.567Z,9.60
2022-09-12T07:49:00.078Z,8.83
2022-09-12T07:51:28.870Z,8.33
2022-09-12T07:53:57.283Z,10.00
2022-09-12T07:56:30.522Z,9.53
2022-09-12T07:58:59.918Z,9.13
2022-09-12T08:01:26.990Z,10.10
2022-09-12T08:03:59.373Z,10.10
2022-09-12T08:06:30.306Z,9.30
2022-09-12T08:08:59.573Z,9.17
2022-09-12T08:11:30.706Z,9.67
2022-09-12T08:13:58.280Z,9.53
2022-09-12T08:16:31.300Z,9.43
2022-09-12T08:19:04.392Z,9.20
2022-09-12T08:21:32.842Z,9.50
2022-09-12T08:24:02.564Z,9.57
2022-09-12T08:26:31.210Z,9.27
2022-09-12T08:28:58.598Z,10.47
2022-09-12T08:31:27.363Z,10.37
2022-09-12T08:33:58.163Z,9.57
2022-09-12T08:36:27.390Z,9.10
2022-09-12T08:38:59.892Z,10.00
2022-09-12T08:41:39.586Z,9.27
2022-09-12T08:44:15.847Z,8.90
2022-09-12T08:47:01.462Z,9.57
2022-09-12T08:49:53.769Z,9.87
2022-09-12T08:52:25.117Z,9.33
2022-09-12T08:54:53.811Z,9.47
2022-09-12T08:57:24.203Z,9.13
2022-09-12T08:59:52.995Z,8.63
2022-09-12T09:02:42.226Z,9.30
2022-09-12T09:05:37.180Z,9.43
2022-09-12T09:08:32.723Z,8.70
2022-09-12T09:11:16.793Z,8.03
2022-09-12T09:14:20.753Z,8.30
2022-09-12T09:16:50.675Z,7.77
2022-09-12T09:19:20.281Z,8.37
2022-09-12T09:22:13.574Z,9.03
2022-09-12T09:24:45.986Z,7.73
2022-09-12T09:27:39.896Z,8.67
2022-09-12T09:30:16.091Z,8.23
2022-09-12T09:32:44.093Z,7.70
2022-09-12T09:35:24.910Z,7.83
2022-09-12T09:38:09.642Z,7.70
2022-09-12T09:40:49.202Z,7.67
2022-09-12T09:43:25.567Z,7.90
2022-09-12T09:45:53.065Z,7.87
2022-09-12T09:48:27.336Z,7.50
2022-09-12T09:50:54.158Z,7.30
2022-09-12T09:53:35.179Z,6.73
2022-09-12T09:56:07.866Z,6.73
2022-09-12T09:58:35.900Z,6.30
2022-09-12T10:01:07.469Z,6.40
2022-09-12T10:03:40.435Z,7.33
2022-09-12T10:06:28.843Z,7.60
2022-09-12T10:09:09.591Z,6.20
2022-09-12T10:11:39.768Z,5.90
2022-09-12T10:14:27.056Z,5.73
2022-09-12T10:16:53.881Z,5.90
2022-09-12T10:19:26.886Z,5.97
2022-09-12T10:21:57.138Z,5.13
2022-09-12T10:24:31.439Z,5.43
2022-09-12T10:27:06.158Z,6.07
2022-09-12T10:29:39.308Z,6.10
2022-09-12T10:32:09.271Z,5.43
2022-09-12T10:34:38.178Z,5.00
2022-09-12T10:37:08.318Z,3.40
2022-09-12T10:39:38.403Z,3.87
2022-09-12T10:42:08.399Z,4.53
2022-09-12T10:44:35.598Z,4.00
2022-09-12T10:47:32.000Z,3.97
2022-09-12T10:50:39.149Z,4.20
2022-09-12T10:53:20.422Z,4.00
2022-09-12T10:56:10.079Z,3.90
2022-09-12T10:58:58.529Z,4.30
2022-09-12T11:01:49.340Z,3.40
2022-09-12T11:04:24.963Z,3.30
2022-09-12T11:07:14.147Z,3.20
2022-09-12T11:09:47.099Z,3.20
2022-09-12T11:12:23.657Z,3.67
2022-09-12T11:15:22.414Z,3.67
2022-09-12T11:18:04.632Z,3.20
2022-09-12T11:21:09.706Z,3.00
2022-09-12T11:23:56.046Z,2.53
2022-09-12T11:26:50.689Z,2.60
2022-09-12T11:29:22.264Z,2.57
2022-09-12T11:32:31.447Z,2.63
2022-09-12T11:35:25.240Z,3.07
2022-09-12T11:37:55.494Z,3.00
2022-09-12T11:41:02.420Z,2.80
2022-09-12T11:43:56.296Z,2.43
2022-09-12T11:46:31.687Z,2.20
2022-09-12T11:49:05.709Z,2.23
2022-09-12T11:52:00.577Z,2.53
2022-09-12T11:54:42.595Z,2.33
2022-09-12T11:57:35.800Z,2.27
2022-09-12T12:00:36.236Z,2.63
2022-09-12T12:03:07.405Z,2.23
2022-09-12T12:05:50.494Z,2.07
2022-09-12T12:08:17.390Z,2.30
2022-09-12T12:10:51.456Z,2.50
2022-09-12T12:13:21.099Z,3.03
2022-09-12T12:15:53.582Z,2.70
2022-09-12T12:18:23.944Z,2.63
2022-09-12T12:20:53.299Z,2.43
2022-09-12T12:23:34.963Z,3.00
2022-09-12T12:26:03.926Z,2.90
2022-09-12T12:28:42.902Z,2.90
2022-09-12T12:31:11.870Z,2.97
2022-09-12T12:33:38.384Z,2.90
2022-09-12T12:36:10.812Z,2.50
2022-09-12T12:38:40.124Z,2.77
2022-09-12T12:41:19.090Z,2.40
2022-09-12T12:43:53.295Z,3.20
2022-09-12T12:46:28.620Z,3.03
2022-09-12T12:49:29.382Z,2.80
2022-09-12T12:52:01.600Z,2.60
2022-09-12T12:54:52.538Z,2.70
2022-09-12T12:57:22.455Z,2.70
2022-09-12T12:59:56.724Z,2.20
2022-09-12T13:02:37.517Z,2.40
2022-09-12T13:05:16.320Z,2.50
2022-09-12T13:07:48.083Z,2.43
2022-09-12T13:10:29.564Z,2.37
2022-09-12T13:13:00.031Z,2.10
2022-09-12T13:15:56.470Z,2.53
2022-09-12T13:18:45.641Z,2.20
2022-09-12T13:21:14.933Z,2.40
2022-09-12T13:23:42.222Z,2.37
2022-09-12T13:26:12.530Z,2.37
2022-09-12T13:28:39.245Z,2.40
2022-09-12T13:31:32.879Z,2.50
2022-09-12T13:34:05.601Z,2.57
2022-09-12T13:36:41.632Z,2.47
2022-09-12T13:39:29.221Z,2.10
2022-09-12T13:42:03.128Z,2.30
2022-09-12T13:44:32.894Z,2.20
2022-09-12T13:47:03.586Z,2.20
2022-09-12T13:49:37.750Z,2.27
2022-09-12T13:52:14.875Z,2.43
2022-09-12T13:54:46.081Z,2.37
2022-09-12T13:57:32.415Z,2.50
2022-09-12T14:00:06.289Z,2.33
2022-09-12T14:02:36.738Z,2.93
2022-09-12T14:05:14.528Z,2.57
2022-09-12T14:08:08.599Z,2.50
2022-09-12T14:13:32.160Z,2.43
2022-09-12T14:16:00.573Z,2.50
2022-09-12T14:18:31.245Z,2.67
2022-09-12T14:21:10.484Z,2.50
2022-09-12T14:23:42.795Z,2.70
2022-09-12T14:26:13.416Z,2.63
2022-09-12T14:28:42.363Z,2.50
2022-09-12T14:31:19.151Z,2.70
2022-09-12T14:34:08.846Z,2.73
2022-09-12T14:36:40.258Z,2.47
2022-09-12T14:39:18.297Z,2.33
2022-09-12T14:41:46.546Z,2.47
2022-09-12T14:44:39.710Z,2.97
2022-09-12T14:47:16.583Z,2.50
2022-09-12T14:49:43.734Z,2.87
2022-09-12T14:52:40.399Z,2.57
2022-09-12T14:55:18.805Z,2.83
2022-09-12T14:57:47.898Z,2.47
2022-09-12T15:00:22.200Z,2.37
2022-09-12T15:02:51.099Z,2.30
2022-09-12T15:05:21.818Z,2.63
2022-09-12T15:07:54.698Z,2.80
2022-09-12T15:10:27.638Z,2.80
2022-09-12T15:13:17.759Z,2.60
2022-09-12T15:15:53.683Z,3.13
2022-09-12T15:18:22.394Z,2.30
2022-09-12T15:20:52.909Z,2.43
2022-09-12T15:23:35.252Z,2.60
2022-09-12T15:26:02.533Z,2.53
2022-09-12T15:28:31.984Z,2.43
2022-09-12T15:31:06.673Z,2.40
2022-09-12T15:33:33.787Z,2.83
2022-09-12T15:36:00.493Z,2.40
2022-09-12T15:38:27.262Z,2.37
2022-09-12T15:40:54.748Z,2.40
2022-09-12T15:43:25.411Z,2.90
2022-09-12T15:45:53.351Z,2.57
2022-09-12T15:48:21.087Z,2.30
2022-09-12T15:50:48.452Z,2.60
2022-09-12T15:53:18.867Z,2.93
2022-09-12T15:55:45.733Z,2.57
2022-09-12T15:58:12.986Z,2.33
2022-09-12T16:00:39.621Z,2.40
2022-09-12T16:03:06.568Z,2.30
2022-09-12T16:05:33.424Z,2.13
2022-09-12T16:08:00.139Z,2.20
2022-09-12T16:10:30.246Z,2.40
2022-09-12T16:12:57.877Z,2.07
2022-09-12T16:15:33.515Z,2.10
2022-09-12T16:18:00.222Z,2.37
2022-09-12T16:20:27.205Z,2.30
2022-09-12T16:22:53.782Z,2.50
2022-09-12T16:25:24.377Z,2.30
2022-09-12T16:27:51.229Z,2.40
2022-09-12T16:30:18.006Z,2.20
2022-09-12T16:32:44.838Z,2.43
2022-09-12T16:35:11.457Z,2.20
2022-09-12T16:37:38.583Z,2.40
2022-09-12T16:40:06.534Z,2.37
2022-09-12T16:42:34.140Z,2.00
2022-09-12T16:45:00.865Z,2.13
2022-09-12T16:47:27.699Z,1.90
2022-09-12T16:49:54.547Z,2.17
2022-09-12T16:52:21.581Z,2.13
2022-09-12T16:54:48.213Z,1.90
2022-09-12T16:57:15.813Z,1.70
2022-09-12T16:59:43.611Z,1.90
2022-09-12T17:02:13.640Z,1.90
2022-09-12T17:04:40.575Z,2.10
2022-09-12T17:07:08.040Z,2.50
2022-09-12T17:09:35.059Z,2.20
2022-09-12T17:12:02.063Z,2.70
2022-09-12T17:14:28.704Z,2.57
2022-09-12T17:16:55.565Z,2.23
2022-09-12T17:19:32.258Z,2.67
2022-09-12T17:21:59.190Z,2.90
2022-09-12T17:24:26.771Z,2.50
2022-09-12T17:26:54.872Z,2.70
2022-09-12T17:29:21.480Z,2.73
2022-09-12T17:31:48.817Z,2.60
2022-09-12T17:34:16.637Z,2.90
2022-09-12T17:36:45.475Z,2.43
2022-09-12T17:39:13.910Z,3.00
2022-09-12T17:41:46.234Z,2.40
2022-09-12T17:44:15.028Z,2.83
2022-09-12T17:46:43.113Z,2.87
2022-09-12T17:49:18.714Z,3.10
2022-09-12T17:51:45.720Z,2.70
2022-09-12T17:54:16.111Z,2.50
2022-09-12T17:56:45.612Z,2.50
2022-09-12T17:59:15.996Z,2.30
2022-09-12T18:02:02.028Z,2.10
2022-09-12T18:04:28.847Z,2.60
2022-09-12T18:06:57.774Z,2.60
2022-09-12T18:09:27.938Z,2.17
2022-09-12T18:11:55.432Z,2.20
2022-09-12T18:14:22.905Z,2.30
2022-09-12T18:16:50.424Z,1.60
2022-09-12T18:19:17.287Z,2.27
2022-09-12T18:21:44.112Z,2.20
2022-09-12T18:24:12.642Z,1.80
2022-09-12T18:26:39.462Z,1.83
2022-09-12T18:29:06.293Z,2.10
2022-09-12T18:31:33.063Z,1.93
2022-09-12T18:34:00.950Z,1.83
2022-09-12T18:36:28.408Z,1.90
2022-09-12T18:38:57.405Z,1.70
2022-09-12T18:41:24.830Z,2.03
2022-09-12T18:43:59.665Z,2.30
2022-09-12T18:46:27.972Z,2.00
2022-09-12T18:48:57.684Z,2.20
2022-09-12T18:51:34.654Z,1.80
2022-09-12T18:54:05.398Z,2.00
2022-09-12T18:56:34.380Z,2.10
2022-09-12T18:59:03.576Z,2.13
2022-09-12T19:01:32.820Z,2.10
2022-09-12T19:04:02.851Z,1.97
2022-09-12T19:06:36.869Z,2.00
2022-09-12T19:09:08.046Z,2.10
2022-09-12T19:11:37.164Z,2.30
2022-09-12T19:14:04.761Z,2.17
2022-09-12T19:16:32.061Z,2.23
2022-09-12T19:18:59.179Z,1.97
2022-09-12T19:21:28.343Z,2.00
2022-09-12T19:24:05.501Z,2.40
2022-09-12T19:26:33.051Z,2.40
2022-09-12T19:29:02.481Z,2.40
2022-09-12T19:31:29.908Z,2.40
2022-09-12T19:34:01.003Z,2.60
2022-09-12T19:36:46.730Z,2.20
2022-09-12T19:39:17.770Z,2.40
2022-09-12T19:41:45.788Z,2.30
2022-09-12T19:44:13.301Z,2.23
2022-09-12T19:46:41.773Z,2.33
2022-09-12T19:49:11.780Z,2.30
2022-09-12T19:51:38.608Z,3.57
2022-09-12T19:54:06.332Z,4.43
2022-09-12T19:56:33.028Z,6.97
2022-09-12T19:59:00.196Z,6.60
2022-09-12T20:01:30.804Z,4.53
2022-09-12T20:03:58.723Z,3.23
2022-09-12T20:06:26.071Z,2.80
2022-09-12T20:08:53.763Z,2.50
2022-09-12T20:11:25.536Z,2.57
2022-09-12T20:13:53.489Z,2.37
2022-09-12T20:16:30.163Z,2.50
2022-09-12T20:18:59.711Z,2.60
2022-09-12T20:21:32.694Z,2.90
2022-09-12T20:24:07.497Z,2.50
2022-09-12T20:26:34.320Z,2.90
2022-09-12T20:29:01.274Z,2.40
2022-09-12T20:31:28.693Z,2.77
2022-09-12T20:33:56.685Z,2.60
2022-09-12T20:36:25.041Z,2.57
2022-09-12T20:38:57.555Z,2.73
2022-09-12T20:41:25.470Z,2.13
2022-09-12T20:43:53.362Z,2.77
2022-09-12T20:46:23.630Z,2.33
2022-09-12T20:48:51.265Z,2.70
2022-09-12T20:51:22.091Z,2.80
2022-09-12T20:53:55.689Z,2.57
2022-09-12T20:56:23.682Z,3.00
2022-09-12T20:58:51.217Z,2.80
2022-09-12T21:01:21.415Z,2.30
2022-09-12T21:03:51.436Z,2.97
2022-09-12T21:06:18.533Z,2.80
2022-09-12T21:08:47.559Z,2.60
2022-09-12T21:11:16.642Z,3.00
2022-09-12T21:13:43.397Z,2.90
2022-09-12T21:16:18.650Z,2.53
2022-09-12T21:18:45.942Z,2.90
2022-09-12T21:21:14.227Z,2.80
2022-09-12T21:25:58.430Z,2.67
2022-09-12T21:28:25.367Z,2.30
2022-09-12T21:30:52.333Z,2.50
2022-09-12T21:33:20.893Z,2.73
2022-09-12T21:35:48.984Z,2.40
2022-09-12T21:38:19.733Z,2.83
2022-09-12T21:40:47.687Z,2.83
2022-09-12T21:43:14.687Z,2.30
2022-09-12T21:45:41.328Z,2.90
2022-09-12T21:48:08.330Z,2.60
2022-09-12T21:50:35.168Z,2.77
2022-09-12T21:53:01.953Z,3.00
2022-09-12T21:55:29.347Z,2.57
2022-09-12T21:57:56.248Z,2.80
2022-09-12T22:00:23.382Z,2.50
2022-09-12T22:02:50.663Z,2.83
2022-09-12T22:05:21.266Z,2.70
2022-09-12T22:07:49.598Z,3.00
2022-09-12T22:10:16.559Z,2.90
2022-09-12T22:12:46.217Z,2.80
2022-09-12T22:15:38.941Z,2.80
2022-09-12T22:18:01.010Z,2.90
2022-09-12T22:20:27.603Z,3.03
2022-09-12T22:23:13.605Z,2.87
2022-09-12T22:25:40.447Z,2.83
2022-09-12T22:28:07.210Z,2.80
2022-09-12T22:30:34.692Z,2.77
2022-09-12T22:33:01.471Z,3.33
2022-09-12T22:35:28.202Z,2.70
2022-09-12T22:37:54.716Z,2.83
2022-09-12T22:40:21.403Z,2.80
2022-09-12T22:42:50.898Z,2.77
2022-09-12T22:45:18.323Z,3.10
2022-09-12T22:47:44.816Z,2.83
2022-09-12T22:50:12.187Z,2.93
2022-09-12T22:52:38.711Z,3.00
2022-09-12T22:55:05.508Z,2.87
2022-09-12T22:57:32.225Z,2.90
2022-09-12T22:59:58.987Z,3.00
2022-09-12T23:02:25.692Z,3.17
2022-09-12T23:04:52.420Z,3.10
2022-09-12T23:07:19.087Z,3.33
2022-09-12T23:09:46.319Z,2.97
